Accueil
METAR-TAF:

METAR-TAF

Aéroports :

Volgograd, Russie

Aéroport de Volgograd

latitude: 48-47N, longitude: 044-22E, altitude: 145 m

Observation

Le bulletin a été fait il y a 40 minutes, à 12:30 UTC
Vent 2 kt de direction variable
Température 6°C
Humidité 39%
Pression 1015 hPa
Visibilité 10 km ou plus
pas de nuages en-dessous de 1500 mètres et pas de cumulonimbus.

METAR: URWW 261230Z VRB01MPS CAVOK 06/M07 Q1015 R06/010070 NOSIG

Heure: 16:10 (13:10 UTC)

Prévision

Le bulletin a été fait il y a 2 heures et 13 minutes, à 10:57 UTC
Prévision valable du 26 à 12 UTC au 26 à 21 UTC
Vent 6 kt de nord-ouest avec des rafales jusqu'à 16 kt
Visibilité 10 km ou plus
Nuages fragmentés à une hauteur de 2000 ft
Temporairement
du 26 à 12 UTC au 26 à 21 UTC
Vent 2 kt de direction variable

TAF: URWW 261057Z 2612/2621 32003G08MPS 9999 BKN020 TEMPO 2612/2621 VRB01MPS

Observations et prévisions météorologiques de plus de 4000 aéroports (messages METAR et TAF).

Les stations disponibles sont représentées par des disques jaunes et rouges sur la carte.

Passer la souris dessus pour voir le nom de la station.

Cliquer dessus pour voir les observations et prévisions météorologiques.

Pour changer de carte: cliquez sur les boutons verts avec une croix noire pour zoomer, sur le bouton vert avec un tiret pour effectuer un zoom arrière, ou sur les flèches vertes pour les cartes adjacentes.


METAR-TAF: